sensor_id;sensor_type;location;lat;lon;timestamp;pressure;altitude;pressure_sealevel;temperature;humidity
59493;BME280;45497;43.996;22.876;2023-02-27T00:00:16;100566.84;;;7.19;53.63
59493;BME280;45497;43.996;22.876;2023-02-27T00:02:45;100588.75;;;7.38;53.35
59493;BME280;45497;43.996;22.876;2023-02-27T00:05:11;100585.56;;;7.52;52.85
59493;BME280;45497;43.996;22.876;2023-02-27T00:07:37;100571.88;;;7.49;52.73
59493;BME280;45497;43.996;22.876;2023-02-27T00:10:02;100568.28;;;7.32;52.92
59493;BME280;45497;43.996;22.876;2023-02-27T00:12:29;100570.25;;;7.12;53.67
59493;BME280;45497;43.996;22.876;2023-02-27T00:14:55;100570.84;;;7.23;53.47
59493;BME280;45497;43.996;22.876;2023-02-27T00:17:20;100574.09;;;7.17;53.72
59493;BME280;45497;43.996;22.876;2023-02-27T00:19:46;100586.22;;;7.10;54.04
59493;BME280;45497;43.996;22.876;2023-02-27T00:22:11;100602.25;;;7.53;53.11
59493;BME280;45497;43.996;22.876;2023-02-27T00:24:37;100601.41;;;7.52;53.02
59493;BME280;45497;43.996;22.876;2023-02-27T00:27:02;100602.41;;;7.51;52.74
59493;BME280;45497;43.996;22.876;2023-02-27T00:29:28;100601.47;;;7.60;52.68
59493;BME280;45497;43.996;22.876;2023-02-27T00:31:53;100591.53;;;7.54;52.32
59493;BME280;45497;43.996;22.876;2023-02-27T00:34:19;100595.69;;;7.57;52.65
59493;BME280;45497;43.996;22.876;2023-02-27T00:36:44;100593.34;;;7.54;52.73
59493;BME280;45497;43.996;22.876;2023-02-27T00:39:09;100595.94;;;7.45;53.07
59493;BME280;45497;43.996;22.876;2023-02-27T00:41:35;100607.84;;;7.76;52.27
59493;BME280;45497;43.996;22.876;2023-02-27T00:44:00;100610.19;;;8.05;52.07
59493;BME280;45497;43.996;22.876;2023-02-27T00:46:26;100603.81;;;7.90;51.71
59493;BME280;45497;43.996;22.876;2023-02-27T00:48:51;100598.28;;;7.75;52.47
59493;BME280;45497;43.996;22.876;2023-02-27T00:51:17;100623.53;;;7.77;52.41
59493;BME280;45497;43.996;22.876;2023-02-27T00:53:44;100630.22;;;7.90;52.44
59493;BME280;45497;43.996;22.876;2023-02-27T00:56:09;100631.44;;;7.77;52.10
59493;BME280;45497;43.996;22.876;2023-02-27T00:58:35;100640.22;;;7.60;52.68
59493;BME280;45497;43.996;22.876;2023-02-27T01:01:00;100641.19;;;7.59;52.63
59493;BME280;45497;43.996;22.876;2023-02-27T01:03:26;100657.03;;;7.41;53.28
59493;BME280;45497;43.996;22.876;2023-02-27T01:05:51;100658.38;;;7.45;53.52
59493;BME280;45497;43.996;22.876;2023-02-27T01:08:17;100658.09;;;7.48;53.11
59493;BME280;45497;43.996;22.876;2023-02-27T01:10:42;100658.38;;;7.45;53.60
59493;BME280;45497;43.996;22.876;2023-02-27T01:13:08;100660.94;;;7.19;54.00
59493;BME280;45497;43.996;22.876;2023-02-27T01:15:33;100671.66;;;7.35;53.81
59493;BME280;45497;43.996;22.876;2023-02-27T01:17:59;100660.63;;;7.40;54.08
59493;BME280;45497;43.996;22.876;2023-02-27T01:20:25;100672.41;;;7.45;53.80
59493;BME280;45497;43.996;22.876;2023-02-27T01:22:50;100677.84;;;7.44;54.00
59493;BME280;45497;43.996;22.876;2023-02-27T01:25:16;100693.94;;;7.59;54.11
59493;BME280;45497;43.996;22.876;2023-02-27T01:27:41;100695.16;;;7.46;55.63
59493;BME280;45497;43.996;22.876;2023-02-27T01:30:08;100695.56;;;7.06;57.76
59493;BME280;45497;43.996;22.876;2023-02-27T01:32:35;100689.06;;;7.00;58.09
59493;BME280;45497;43.996;22.876;2023-02-27T01:35:01;100699.31;;;7.03;58.85
59493;BME280;45497;43.996;22.876;2023-02-27T01:37:27;100700.81;;;6.78;60.18
59493;BME280;45497;43.996;22.876;2023-02-27T01:39:52;100700.06;;;6.96;60.14
59493;BME280;45497;43.996;22.876;2023-02-27T01:42:20;100688.78;;;6.76;60.99
59493;BME280;45497;43.996;22.876;2023-02-27T01:45:14;100699.13;;;6.87;61.17
59493;BME280;45497;43.996;22.876;2023-02-27T01:47:43;100707.38;;;6.64;62.50
59493;BME280;45497;43.996;22.876;2023-02-27T01:50:10;100721.59;;;6.44;63.99
59493;BME280;45497;43.996;22.876;2023-02-27T01:52:37;100715.88;;;6.58;63.15
59493;BME280;45497;43.996;22.876;2023-02-27T01:55:04;100721.63;;;6.72;62.71
59493;BME280;45497;43.996;22.876;2023-02-27T01:57:33;100735.81;;;6.70;62.68
59493;BME280;45497;43.996;22.876;2023-02-27T01:59:59;100750.25;;;6.66;62.64
59493;BME280;45497;43.996;22.876;2023-02-27T02:02:33;100752.31;;;6.63;63.40
59493;BME280;45497;43.996;22.876;2023-02-27T02:05:00;100761.63;;;6.47;63.71
59493;BME280;45497;43.996;22.876;2023-02-27T02:07:27;100779.53;;;6.44;63.69
59493;BME280;45497;43.996;22.876;2023-02-27T02:09:55;100770.81;;;6.43;63.58
59493;BME280;45497;43.996;22.876;2023-02-27T02:12:27;100787.44;;;6.44;63.48
59493;BME280;45497;43.996;22.876;2023-02-27T02:14:53;100784.69;;;6.36;63.75
59493;BME280;45497;43.996;22.876;2023-02-27T02:28:48;100796.19;;;6.35;63.57
59493;BME280;45497;43.996;22.876;2023-02-27T02:39:02;100821.25;;;6.29;63.88
59493;BME280;45497;43.996;22.876;2023-02-27T02:41:59;100827.38;;;6.39;63.67
59493;BME280;45497;43.996;22.876;2023-02-27T02:47:30;100838.56;;;6.12;63.80
59493;BME280;45497;43.996;22.876;2023-02-27T02:53:20;100850.63;;;6.24;64.14
59493;BME280;45497;43.996;22.876;2023-02-27T02:58:46;100862.75;;;5.86;65.28
59493;BME280;45497;43.996;22.876;2023-02-27T03:01:17;100879.28;;;5.98;64.87
59493;BME280;45497;43.996;22.876;2023-02-27T03:04:07;100901.75;;;6.22;64.06
59493;BME280;45497;43.996;22.876;2023-02-27T03:06:41;100900.78;;;6.13;64.34
59493;BME280;45497;43.996;22.876;2023-02-27T03:09:18;100898.88;;;6.25;64.14
59493;BME280;45497;43.996;22.876;2023-02-27T03:11:47;100919.53;;;6.39;63.30
59493;BME280;45497;43.996;22.876;2023-02-27T03:16:47;100939.03;;;6.27;63.28
59493;BME280;45497;43.996;22.876;2023-02-27T03:19:21;100935.28;;;6.29;63.11
59493;BME280;45497;43.996;22.876;2023-02-27T03:22:09;100955.78;;;6.26;63.71
59493;BME280;45497;43.996;22.876;2023-02-27T03:24:41;100949.09;;;6.02;63.66
59493;BME280;45497;43.996;22.876;2023-02-27T03:27:10;100969.34;;;6.11;63.24
59493;BME280;45497;43.996;22.876;2023-02-27T03:32:17;100978.09;;;6.31;62.70
59493;BME280;45497;43.996;22.876;2023-02-27T03:34:43;100993.81;;;6.43;62.41
59493;BME280;45497;43.996;22.876;2023-02-27T03:42:31;101001.72;;;6.43;61.78
59493;BME280;45497;43.996;22.876;2023-02-27T03:47:30;101010.72;;;6.50;61.21
59493;BME280;45497;43.996;22.876;2023-02-27T03:49:56;101016.25;;;6.47;61.41
59493;BME280;45497;43.996;22.876;2023-02-27T03:52:22;101024.84;;;6.49;61.31
59493;BME280;45497;43.996;22.876;2023-02-27T03:54:57;101030.81;;;6.51;61.23
59493;BME280;45497;43.996;22.876;2023-02-27T03:57:24;101039.72;;;6.60;60.65
59493;BME280;45497;43.996;22.876;2023-02-27T03:59:51;101031.53;;;6.63;60.93
59493;BME280;45497;43.996;22.876;2023-02-27T04:02:18;101035.69;;;6.75;60.30
59493;BME280;45497;43.996;22.876;2023-02-27T04:04:44;101046.38;;;6.93;60.34
59493;BME280;45497;43.996;22.876;2023-02-27T04:13:08;101053.56;;;6.62;59.86
59493;BME280;45497;43.996;22.876;2023-02-27T04:19:19;101056.63;;;6.67;59.36
59493;BME280;45497;43.996;22.876;2023-02-27T04:29:22;101082.41;;;6.54;58.96
59493;BME280;45497;43.996;22.876;2023-02-27T04:32:05;101090.88;;;6.57;59.41
59493;BME280;45497;43.996;22.876;2023-02-27T04:35:14;101095.41;;;6.55;59.51
59493;BME280;45497;43.996;22.876;2023-02-27T04:37:49;101097.59;;;6.40;59.36
59493;BME280;45497;43.996;22.876;2023-02-27T04:40:35;101111.31;;;6.34;59.29
59493;BME280;45497;43.996;22.876;2023-02-27T04:43:05;101105.06;;;6.35;59.64
59493;BME280;45497;43.996;22.876;2023-02-27T04:45:32;101109.75;;;6.01;60.40
59493;BME280;45497;43.996;22.876;2023-02-27T04:48:27;101106.75;;;5.94;60.24
59493;BME280;45497;43.996;22.876;2023-02-27T04:50:59;101105.06;;;6.04;59.77
59493;BME280;45497;43.996;22.876;2023-02-27T04:53:39;101108.56;;;6.15;59.51
59493;BME280;45497;43.996;22.876;2023-02-27T04:56:12;101110.09;;;6.17;59.76
59493;BME280;45497;43.996;22.876;2023-02-27T04:58:51;101123.66;;;6.12;59.53
59493;BME280;45497;43.996;22.876;2023-02-27T05:01:23;101122.66;;;6.04;59.73
59493;BME280;45497;43.996;22.876;2023-02-27T05:03:53;101121.09;;;6.01;59.90
59493;BME280;45497;43.996;22.876;2023-02-27T05:06:22;101123.41;;;5.73;60.22
59493;BME280;45497;43.996;22.876;2023-02-27T05:09:07;101139.56;;;5.69;60.20
59493;BME280;45497;43.996;22.876;2023-02-27T05:11:48;101147.16;;;5.62;60.71
59493;BME280;45497;43.996;22.876;2023-02-27T05:14:26;101162.41;;;5.68;60.71
59493;BME280;45497;43.996;22.876;2023-02-27T05:17:08;101163.69;;;5.95;59.75
59493;BME280;45497;43.996;22.876;2023-02-27T05:19:40;101172.97;;;6.10;59.10
59493;BME280;45497;43.996;22.876;2023-02-27T05:27:50;101202.59;;;5.91;59.40
59493;BME280;45497;43.996;22.876;2023-02-27T05:33:04;101221.44;;;6.08;58.68
59493;BME280;45497;43.996;22.876;2023-02-27T05:35:37;101222.91;;;6.22;58.89
59493;BME280;45497;43.996;22.876;2023-02-27T05:38:18;101225.44;;;6.23;58.56
59493;BME280;45497;43.996;22.876;2023-02-27T05:40:53;101226.06;;;6.16;58.70
59493;BME280;45497;43.996;22.876;2023-02-27T05:43:24;101229.28;;;5.98;59.00
59493;BME280;45497;43.996;22.876;2023-02-27T05:45:56;101251.47;;;5.94;59.31
59493;BME280;45497;43.996;22.876;2023-02-27T05:48:29;101260.78;;;6.09;59.13
59493;BME280;45497;43.996;22.876;2023-02-27T05:50:58;101258.69;;;5.92;59.29
59493;BME280;45497;43.996;22.876;2023-02-27T05:53:26;101256.75;;;6.05;59.28
59493;BME280;45497;43.996;22.876;2023-02-27T05:55:55;101252.78;;;6.11;58.85
59493;BME280;45497;43.996;22.876;2023-02-27T05:58:38;101268.56;;;6.11;58.42
59493;BME280;45497;43.996;22.876;2023-02-27T06:01:07;101267.28;;;6.05;58.56
59493;BME280;45497;43.996;22.876;2023-02-27T06:03:34;101274.66;;;6.11;58.97
59493;BME280;45497;43.996;22.876;2023-02-27T06:06:04;101288.16;;;6.39;58.34
59493;BME280;45497;43.996;22.876;2023-02-27T06:08:30;101287.44;;;6.37;58.11
59493;BME280;45497;43.996;22.876;2023-02-27T06:10:55;101308.81;;;6.23;57.93
59493;BME280;45497;43.996;22.876;2023-02-27T06:13:21;101296.69;;;6.10;58.41
59493;BME280;45497;43.996;22.876;2023-02-27T06:15:47;101293.13;;;6.00;58.44
59493;BME280;45497;43.996;22.876;2023-02-27T06:18:14;101308.69;;;6.24;58.88
59493;BME280;45497;43.996;22.876;2023-02-27T06:20:40;101319.19;;;6.57;57.95
59493;BME280;45497;43.996;22.876;2023-02-27T06:23:06;101321.88;;;6.45;57.57
59493;BME280;45497;43.996;22.876;2023-02-27T06:25:32;101309.88;;;6.53;57.53
59493;BME280;45497;43.996;22.876;2023-02-27T06:27:58;101326.50;;;6.32;57.59
59493;BME280;45497;43.996;22.876;2023-02-27T06:30:23;101316.41;;;6.37;57.61
59493;BME280;45497;43.996;22.876;2023-02-27T06:32:48;101325.22;;;6.47;57.30
59493;BME280;45497;43.996;22.876;2023-02-27T06:35:14;101330.69;;;6.35;57.12
59493;BME280;45497;43.996;22.876;2023-02-27T06:37:40;101341.13;;;6.46;57.60
59493;BME280;45497;43.996;22.876;2023-02-27T06:40:07;101345.47;;;6.47;57.12
59493;BME280;45497;43.996;22.876;2023-02-27T06:42:37;101337.28;;;6.29;57.32
59493;BME280;45497;43.996;22.876;2023-02-27T06:45:03;101346.53;;;6.44;56.87
59493;BME280;45497;43.996;22.876;2023-02-27T06:47:31;101358.16;;;6.42;57.25
59493;BME280;45497;43.996;22.876;2023-02-27T06:49:56;101356.44;;;6.52;56.84
59493;BME280;45497;43.996;22.876;2023-02-27T06:52:22;101353.16;;;6.60;56.83
59493;BME280;45497;43.996;22.876;2023-02-27T06:54:47;101368.66;;;6.74;56.52
59493;BME280;45497;43.996;22.876;2023-02-27T06:57:13;101361.97;;;6.49;56.12
59493;BME280;45497;43.996;22.876;2023-02-27T06:59:38;101377.31;;;6.44;57.26
59493;BME280;45497;43.996;22.876;2023-02-27T07:02:04;101369.22;;;6.57;56.29
59493;BME280;45497;43.996;22.876;2023-02-27T07:04:29;101359.66;;;6.56;56.60
59493;BME280;45497;43.996;22.876;2023-02-27T07:06:55;101359.38;;;6.59;56.40
59493;BME280;45497;43.996;22.876;2023-02-27T07:09:20;101354.84;;;6.40;56.35
59493;BME280;45497;43.996;22.876;2023-02-27T07:11:47;101341.56;;;6.30;56.87
59493;BME280;45497;43.996;22.876;2023-02-27T07:14:12;101348.56;;;6.20;57.16
59493;BME280;45497;43.996;22.876;2023-02-27T07:16:40;101349.97;;;6.56;56.41
59493;BME280;45497;43.996;22.876;2023-02-27T07:19:06;101352.66;;;6.45;56.90
59493;BME280;45497;43.996;22.876;2023-02-27T07:21:32;101362.03;;;6.59;56.46
59493;BME280;45497;43.996;22.876;2023-02-27T07:23:58;101371.09;;;6.45;56.58
59493;BME280;45497;43.996;22.876;2023-02-27T07:26:23;101357.47;;;6.40;56.83
59493;BME280;45497;43.996;22.876;2023-02-27T07:28:49;101371.03;;;6.77;56.15
59493;BME280;45497;43.996;22.876;2023-02-27T07:31:14;101363.47;;;6.63;55.83
59493;BME280;45497;43.996;22.876;2023-02-27T07:33:39;101356.88;;;6.78;56.12
59493;BME280;45497;43.996;22.876;2023-02-27T07:36:06;101362.81;;;6.92;55.98
59493;BME280;45497;43.996;22.876;2023-02-27T07:38:31;101358.25;;;6.94;56.49
59493;BME280;45497;43.996;22.876;2023-02-27T07:40:57;101373.84;;;6.85;55.63
59493;BME280;45497;43.996;22.876;2023-02-27T07:43:23;101373.47;;;6.90;56.12
59493;BME280;45497;43.996;22.876;2023-02-27T07:45:49;101386.66;;;6.69;55.82
59493;BME280;45497;43.996;22.876;2023-02-27T07:48:16;101375.25;;;6.47;55.94
59493;BME280;45497;43.996;22.876;2023-02-27T07:50:42;101380.66;;;6.46;56.83
59493;BME280;45497;43.996;22.876;2023-02-27T07:53:07;101384.97;;;6.68;55.83
59493;BME280;45497;43.996;22.876;2023-02-27T07:55:34;101381.44;;;6.79;55.77
59493;BME280;45497;43.996;22.876;2023-02-27T07:58:00;101386.91;;;7.08;56.03
59493;BME280;45497;43.996;22.876;2023-02-27T08:00:25;101403.78;;;7.05;55.12
59493;BME280;45497;43.996;22.876;2023-02-27T08:02:50;101389.56;;;7.18;55.62
59493;BME280;45497;43.996;22.876;2023-02-27T08:05:16;101388.34;;;7.22;55.35
59493;BME280;45497;43.996;22.876;2023-02-27T08:07:41;101385.75;;;7.32;54.39
59493;BME280;45497;43.996;22.876;2023-02-27T08:10:07;101392.34;;;7.47;54.56
59493;BME280;45497;43.996;22.876;2023-02-27T08:12:33;101404.44;;;6.98;55.12
59493;BME280;45497;43.996;22.876;2023-02-27T08:14:59;101408.63;;;6.79;56.30
59493;BME280;45497;43.996;22.876;2023-02-27T08:17:24;101416.69;;;6.99;55.44
59493;BME280;45497;43.996;22.876;2023-02-27T08:19:50;101417.06;;;7.15;54.82
59493;BME280;45497;43.996;22.876;2023-02-27T08:22:15;101412.94;;;7.53;54.80
59493;BME280;45497;43.996;22.876;2023-02-27T08:24:41;101421.66;;;7.54;53.54
59493;BME280;45497;43.996;22.876;2023-02-27T08:27:06;101411.72;;;7.36;54.13
59493;BME280;45497;43.996;22.876;2023-02-27T08:29:32;101429.13;;;7.49;54.31
59493;BME280;45497;43.996;22.876;2023-02-27T08:31:58;101420.03;;;7.62;54.05
59493;BME280;45497;43.996;22.876;2023-02-27T08:34:24;101428.47;;;7.87;54.10
59493;BME280;45497;43.996;22.876;2023-02-27T08:36:50;101437.63;;;7.52;54.40
59493;BME280;45497;43.996;22.876;2023-02-27T08:39:16;101445.41;;;7.54;54.99
59493;BME280;45497;43.996;22.876;2023-02-27T08:41:43;101439.91;;;7.66;53.73
59493;BME280;45497;43.996;22.876;2023-02-27T08:44:10;101447.69;;;7.37;53.62
59493;BME280;45497;43.996;22.876;2023-02-27T08:46:36;101454.00;;;7.25;53.97
59493;BME280;45497;43.996;22.876;2023-02-27T08:49:02;101451.00;;;7.30;54.42
59493;BME280;45497;43.996;22.876;2023-02-27T08:51:27;101452.63;;;7.52;53.54
59493;BME280;45497;43.996;22.876;2023-02-27T08:53:53;101459.00;;;7.49;53.36
59493;BME280;45497;43.996;22.876;2023-02-27T08:56:26;101460.28;;;7.85;53.00
59493;BME280;45497;43.996;22.876;2023-02-27T08:58:51;101461.28;;;8.04;52.00
59493;BME280;45497;43.996;22.876;2023-02-27T09:01:17;101441.72;;;8.16;52.05
59493;BME280;45497;43.996;22.876;2023-02-27T09:03:43;101451.03;;;8.20;52.35
59493;BME280;45497;43.996;22.876;2023-02-27T09:06:08;101451.63;;;8.34;52.92
59493;BME280;45497;43.996;22.876;2023-02-27T09:08:34;101433.66;;;8.28;51.98
59493;BME280;45497;43.996;22.876;2023-02-27T09:10:59;101444.81;;;8.41;51.30
59493;BME280;45497;43.996;22.876;2023-02-27T09:13:25;101445.34;;;8.25;51.39
59493;BME280;45497;43.996;22.876;2023-02-27T09:15:51;101455.44;;;7.91;51.89
59493;BME280;45497;43.996;22.876;2023-02-27T09:18:17;101447.69;;;8.09;52.29
59493;BME280;45497;43.996;22.876;2023-02-27T09:20:42;101444.06;;;8.00;51.78
59493;BME280;45497;43.996;22.876;2023-02-27T09:23:08;101462.34;;;7.92;51.26
59493;BME280;45497;43.996;22.876;2023-02-27T09:25:35;101448.25;;;7.72;51.07
59493;BME280;45497;43.996;22.876;2023-02-27T09:28:00;101446.94;;;7.87;51.68
59493;BME280;45497;43.996;22.876;2023-02-27T09:30:26;101444.56;;;7.84;51.00
59493;BME280;45497;43.996;22.876;2023-02-27T09:32:52;101444.47;;;7.55;50.03
59493;BME280;45497;43.996;22.876;2023-02-27T09:35:18;101449.06;;;7.62;50.72
59493;BME280;45497;43.996;22.876;2023-02-27T09:37:44;101434.38;;;7.70;50.38
59493;BME280;45497;43.996;22.876;2023-02-27T09:40:19;101455.16;;;7.63;50.25
59493;BME280;45497;43.996;22.876;2023-02-27T09:42:45;101449.16;;;7.82;50.19
59493;BME280;45497;43.996;22.876;2023-02-27T09:45:28;101454.41;;;8.32;49.81
59493;BME280;45497;43.996;22.876;2023-02-27T09:48:11;101455.94;;;8.35;50.18
59493;BME280;45497;43.996;22.876;2023-02-27T09:50:47;101469.75;;;8.68;48.80
59493;BME280;45497;43.996;22.876;2023-02-27T09:53:25;101474.06;;;8.69;48.54
59493;BME280;45497;43.996;22.876;2023-02-27T09:55:53;101483.25;;;8.65;48.66
59493;BME280;45497;43.996;22.876;2023-02-27T09:58:33;101479.34;;;8.88;48.04
59493;BME280;45497;43.996;22.876;2023-02-27T10:01:08;101476.97;;;8.66;48.57
59493;BME280;45497;43.996;22.876;2023-02-27T10:11:34;101488.13;;;8.69;48.41
59493;BME280;45497;43.996;22.876;2023-02-27T10:17:09;101486.72;;;8.75;47.84
59493;BME280;45497;43.996;22.876;2023-02-27T10:19:37;101489.38;;;8.55;47.07
59493;BME280;45497;43.996;22.876;2023-02-27T10:22:07;101487.28;;;8.88;47.58
59493;BME280;45497;43.996;22.876;2023-02-27T10:24:40;101482.81;;;9.08;47.77
59493;BME280;45497;43.996;22.876;2023-02-27T10:27:14;101491.03;;;8.86;48.25
59493;BME280;45497;43.996;22.876;2023-02-27T10:29:40;101495.75;;;9.02;47.81
59493;BME280;45497;43.996;22.876;2023-02-27T10:32:12;101506.63;;;8.89;47.95
59493;BME280;45497;43.996;22.876;2023-02-27T10:34:41;101516.50;;;9.06;47.88
59493;BME280;45497;43.996;22.876;2023-02-27T10:37:12;101515.25;;;9.20;47.37
59493;BME280;45497;43.996;22.876;2023-02-27T10:39:59;101506.75;;;9.07;47.44
59493;BME280;45497;43.996;22.876;2023-02-27T10:42:29;101502.56;;;9.24;47.88
59493;BME280;45497;43.996;22.876;2023-02-27T10:44:55;101518.53;;;9.51;46.46
59493;BME280;45497;43.996;22.876;2023-02-27T10:47:23;101524.78;;;9.60;45.46
59493;BME280;45497;43.996;22.876;2023-02-27T10:49:49;101525.53;;;9.04;46.94
59493;BME280;45497;43.996;22.876;2023-02-27T10:52:17;101536.19;;;9.61;46.19
59493;BME280;45497;43.996;22.876;2023-02-27T10:54:44;101536.91;;;9.53;45.67
59493;BME280;45497;43.996;22.876;2023-02-27T10:57:41;101534.38;;;9.61;45.66
59493;BME280;45497;43.996;22.876;2023-02-27T11:00:25;101547.63;;;9.42;45.34
59493;BME280;45497;43.996;22.876;2023-02-27T11:02:53;101535.66;;;9.57;46.08
59493;BME280;45497;43.996;22.876;2023-02-27T11:05:36;101524.66;;;9.52;45.50
59493;BME280;45497;43.996;22.876;2023-02-27T11:08:25;101533.72;;;9.49;45.35
59493;BME280;45497;43.996;22.876;2023-02-27T11:11:11;101535.31;;;9.70;45.29
59493;BME280;45497;43.996;22.876;2023-02-27T11:13:39;101528.81;;;10.02;45.09
59493;BME280;45497;43.996;22.876;2023-02-27T11:16:14;101540.78;;;10.06;45.55
59493;BME280;45497;43.996;22.876;2023-02-27T11:18:41;101527.94;;;10.39;45.07
59493;BME280;45497;43.996;22.876;2023-02-27T11:26:34;101541.38;;;9.90;44.77
59493;BME280;45497;43.996;22.876;2023-02-27T11:31:45;101546.75;;;10.45;44.29
59493;BME280;45497;43.996;22.876;2023-02-27T11:34:21;101538.13;;;10.06;43.68
59493;BME280;45497;43.996;22.876;2023-02-27T11:36:51;101537.06;;;10.26;44.43
59493;BME280;45497;43.996;22.876;2023-02-27T11:39:38;101553.25;;;10.51;44.43
59493;BME280;45497;43.996;22.876;2023-02-27T11:42:16;101548.97;;;10.68;44.44
59493;BME280;45497;43.996;22.876;2023-02-27T11:45:03;101544.75;;;10.75;44.42
59493;BME280;45497;43.996;22.876;2023-02-27T11:47:33;101552.38;;;10.60;43.66
59493;BME280;45497;43.996;22.876;2023-02-27T11:53:18;101556.75;;;10.69;43.82
59493;BME280;45497;43.996;22.876;2023-02-27T11:55:32;101558.38;;;10.98;44.28
59493;BME280;45497;43.996;22.876;2023-02-27T11:58:13;101552.94;;;10.36;42.87
59493;BME280;45497;43.996;22.876;2023-02-27T12:00:56;101553.50;;;10.58;44.01
59493;BME280;45497;43.996;22.876;2023-02-27T12:03:33;101553.00;;;10.72;43.22
59493;BME280;45497;43.996;22.876;2023-02-27T12:06:02;101551.94;;;10.83;42.85
59493;BME280;45497;43.996;22.876;2023-02-27T12:08:38;101551.78;;;10.66;43.22
59493;BME280;45497;43.996;22.876;2023-02-27T12:11:38;101551.69;;;10.30;43.52
59493;BME280;45497;43.996;22.876;2023-02-27T12:16:48;101531.91;;;10.52;43.13
59493;BME280;45497;43.996;22.876;2023-02-27T12:19:25;101550.28;;;10.36;44.01
59493;BME280;45497;43.996;22.876;2023-02-27T12:22:16;101539.09;;;10.60;43.58
59493;BME280;45497;43.996;22.876;2023-02-27T12:24:47;101546.38;;;10.58;43.27
59493;BME280;45497;43.996;22.876;2023-02-27T12:27:40;101536.00;;;10.19;43.10
59493;BME280;45497;43.996;22.876;2023-02-27T12:30:41;101551.81;;;10.57;43.28
59493;BME280;45497;43.996;22.876;2023-02-27T12:33:49;101561.13;;;10.43;43.14
59493;BME280;45497;43.996;22.876;2023-02-27T12:36:18;101557.13;;;10.29;44.17
59493;BME280;45497;43.996;22.876;2023-02-27T12:38:43;101561.31;;;10.31;43.28
59493;BME280;45497;43.996;22.876;2023-02-27T12:41:34;101555.00;;;10.05;43.62
59493;BME280;45497;43.996;22.876;2023-02-27T12:44:35;101544.75;;;10.20;44.11
59493;BME280;45497;43.996;22.876;2023-02-27T12:55:04;101561.78;;;9.80;44.65
59493;BME280;45497;43.996;22.876;2023-02-27T13:00:25;101572.94;;;9.83;44.71
59493;BME280;45497;43.996;22.876;2023-02-27T13:03:03;101579.69;;;10.05;44.52
59493;BME280;45497;43.996;22.876;2023-02-27T13:11:31;101570.59;;;9.61;44.37
59493;BME280;45497;43.996;22.876;2023-02-27T13:16:30;101565.16;;;9.62;43.66
59493;BME280;45497;43.996;22.876;2023-02-27T13:19:39;101558.19;;;9.71;43.81
59493;BME280;45497;43.996;22.876;2023-02-27T13:22:36;101538.88;;;9.88;43.54
59493;BME280;45497;43.996;22.876;2023-02-27T13:25:10;101552.13;;;9.88;44.95
59493;BME280;45497;43.996;22.876;2023-02-27T13:27:46;101559.16;;;9.80;44.93
59493;BME280;45497;43.996;22.876;2023-02-27T13:30:40;101553.66;;;9.44;45.04
59493;BME280;45497;43.996;22.876;2023-02-27T13:36:17;101546.59;;;9.72;45.14
59493;BME280;45497;43.996;22.876;2023-02-27T13:38:46;101560.25;;;9.87;45.32
59493;BME280;45497;43.996;22.876;2023-02-27T13:56:48;101559.28;;;9.68;46.25
59493;BME280;45497;43.996;22.876;2023-02-27T13:59:24;101560.88;;;9.51;46.48
59493;BME280;45497;43.996;22.876;2023-02-27T14:02:01;101564.63;;;9.59;46.75
59493;BME280;45497;43.996;22.876;2023-02-27T14:04:30;101560.50;;;9.36;46.14
59493;BME280;45497;43.996;22.876;2023-02-27T14:07:10;101563.97;;;9.08;47.22
59493;BME280;45497;43.996;22.876;2023-02-27T14:09:39;101566.16;;;9.42;47.09
59493;BME280;45497;43.996;22.876;2023-02-27T14:12:25;101563.91;;;9.66;46.38
59493;BME280;45497;43.996;22.876;2023-02-27T14:14:51;101570.81;;;9.20;46.90
59493;BME280;45497;43.996;22.876;2023-02-27T14:17:38;101567.44;;;9.28;47.32
59493;BME280;45497;43.996;22.876;2023-02-27T14:28:47;101572.03;;;9.35;46.54
59493;BME280;45497;43.996;22.876;2023-02-27T14:31:33;101584.59;;;9.04;47.30
59493;BME280;45497;43.996;22.876;2023-02-27T14:34:02;101576.91;;;8.91;47.44
59493;BME280;45497;43.996;22.876;2023-02-27T14:36:47;101581.69;;;8.57;47.88
59493;BME280;45497;43.996;22.876;2023-02-27T14:39:41;101592.91;;;8.90;47.12
59493;BME280;45497;43.996;22.876;2023-02-27T14:44:58;101583.00;;;8.72;46.73
59493;BME280;45497;43.996;22.876;2023-02-27T14:47:33;101579.97;;;8.96;46.65
59493;BME280;45497;43.996;22.876;2023-02-27T14:50:01;101583.31;;;8.89;46.53
59493;BME280;45497;43.996;22.876;2023-02-27T14:52:30;101587.06;;;8.86;46.49
59493;BME280;45497;43.996;22.876;2023-02-27T14:55:29;101592.78;;;8.91;45.99
59493;BME280;45497;43.996;22.876;2023-02-27T14:58:18;101589.16;;;8.92;46.11
59493;BME280;45497;43.996;22.876;2023-02-27T15:00:47;101594.53;;;8.61;46.89
59493;BME280;45497;43.996;22.876;2023-02-27T15:05:53;101586.66;;;8.81;46.17
59493;BME280;45497;43.996;22.876;2023-02-27T15:08:28;101598.03;;;8.72;46.70
59493;BME280;45497;43.996;22.876;2023-02-27T15:10:56;101612.25;;;8.80;46.43
59493;BME280;45497;43.996;22.876;2023-02-27T15:13:29;101607.66;;;8.83;46.66
59493;BME280;45497;43.996;22.876;2023-02-27T15:18:55;101609.56;;;8.61;46.50
59493;BME280;45497;43.996;22.876;2023-02-27T15:21:23;101617.94;;;8.86;46.38
59493;BME280;45497;43.996;22.876;2023-02-27T15:24:01;101623.78;;;8.70;46.88
59493;BME280;45497;43.996;22.876;2023-02-27T15:26:33;101628.78;;;8.73;46.81
59493;BME280;45497;43.996;22.876;2023-02-27T15:28:59;101638.13;;;8.87;46.62
59493;BME280;45497;43.996;22.876;2023-02-27T15:31:26;101635.88;;;8.82;46.74
59493;BME280;45497;43.996;22.876;2023-02-27T15:33:55;101641.41;;;8.69;47.05
59493;BME280;45497;43.996;22.876;2023-02-27T15:36:25;101642.25;;;8.39;47.59